sensor_id;sensor_type;location;lat;lon;timestamp;temperature;humidity
1626;DHT22;806;48.770;9.156;2023-04-03T00:01:49;6.00;99.90
1626;DHT22;806;48.770;9.156;2023-04-03T00:04:16;5.90;99.90
1626;DHT22;806;48.770;9.156;2023-04-03T00:06:44;5.90;99.90
1626;DHT22;806;48.770;9.156;2023-04-03T00:09:12;6.00;99.90
1626;DHT22;806;48.770;9.156;2023-04-03T00:11:39;6.00;99.90
1626;DHT22;806;48.770;9.156;2023-04-03T00:14:06;6.10;99.90
1626;DHT22;806;48.770;9.156;2023-04-03T00:16:33;6.20;99.90
1626;DHT22;806;48.770;9.156;2023-04-03T00:19:02;6.10;99.90
1626;DHT22;806;48.770;9.156;2023-04-03T00:21:29;6.00;99.90
1626;DHT22;806;48.770;9.156;2023-04-03T00:23:56;6.00;99.90
1626;DHT22;806;48.770;9.156;2023-04-03T00:26:23;6.10;99.90
1626;DHT22;806;48.770;9.156;2023-04-03T00:28:50;6.20;99.90
1626;DHT22;806;48.770;9.156;2023-04-03T00:31:17;6.30;99.90
1626;DHT22;806;48.770;9.156;2023-04-03T00:33:44;6.20;99.90
1626;DHT22;806;48.770;9.156;2023-04-03T00:36:13;6.10;99.90
1626;DHT22;806;48.770;9.156;2023-04-03T00:38:40;5.90;99.90
1626;DHT22;806;48.770;9.156;2023-04-03T00:41:08;6.20;99.90
1626;DHT22;806;48.770;9.156;2023-04-03T00:43:35;6.00;99.90
1626;DHT22;806;48.770;9.156;2023-04-03T00:46:02;6.00;99.90
1626;DHT22;806;48.770;9.156;2023-04-03T00:48:31;6.00;99.90
1626;DHT22;806;48.770;9.156;2023-04-03T00:50:59;5.90;99.90
1626;DHT22;806;48.770;9.156;2023-04-03T00:53:33;5.90;99.90
1626;DHT22;806;48.770;9.156;2023-04-03T00:56:05;5.80;99.90
1626;DHT22;806;48.770;9.156;2023-04-03T00:58:38;5.70;99.90
1626;DHT22;806;48.770;9.156;2023-04-03T01:01:08;5.70;99.90
1626;DHT22;806;48.770;9.156;2023-04-03T01:03:37;5.80;99.90
1626;DHT22;806;48.770;9.156;2023-04-03T01:06:04;5.80;99.90
1626;DHT22;806;48.770;9.156;2023-04-03T01:08:33;5.80;99.90
1626;DHT22;806;48.770;9.156;2023-04-03T01:11:00;5.70;99.90
1626;DHT22;806;48.770;9.156;2023-04-03T01:13:30;5.50;99.90
1626;DHT22;806;48.770;9.156;2023-04-03T01:16:01;5.40;99.90
1626;DHT22;806;48.770;9.156;2023-04-03T01:18:29;5.50;99.90
1626;DHT22;806;48.770;9.156;2023-04-03T01:21:20;5.50;99.90
1626;DHT22;806;48.770;9.156;2023-04-03T01:24:08;5.60;99.90
1626;DHT22;806;48.770;9.156;2023-04-03T01:26:36;5.60;99.90
1626;DHT22;806;48.770;9.156;2023-04-03T01:29:04;5.70;99.90
1626;DHT22;806;48.770;9.156;2023-04-03T01:31:51;5.70;99.90
1626;DHT22;806;48.770;9.156;2023-04-03T01:34:19;6.00;99.90
1626;DHT22;806;48.770;9.156;2023-04-03T01:36:46;6.00;99.90
1626;DHT22;806;48.770;9.156;2023-04-03T01:39:14;5.90;99.90
1626;DHT22;806;48.770;9.156;2023-04-03T01:41:41;5.80;99.90
1626;DHT22;806;48.770;9.156;2023-04-03T01:44:08;5.90;99.90
1626;DHT22;806;48.770;9.156;2023-04-03T01:46:35;6.10;99.90
1626;DHT22;806;48.770;9.156;2023-04-03T01:49:04;6.00;99.90
1626;DHT22;806;48.770;9.156;2023-04-03T01:51:31;5.90;99.90
1626;DHT22;806;48.770;9.156;2023-04-03T01:53:59;5.90;99.90
1626;DHT22;806;48.770;9.156;2023-04-03T01:56:26;6.00;99.90
1626;DHT22;806;48.770;9.156;2023-04-03T01:58:53;6.00;99.90
1626;DHT22;806;48.770;9.156;2023-04-03T02:01:20;5.90;99.90
1626;DHT22;806;48.770;9.156;2023-04-03T02:03:47;5.90;99.90
1626;DHT22;806;48.770;9.156;2023-04-03T02:06:16;5.90;99.90
1626;DHT22;806;48.770;9.156;2023-04-03T02:08:43;6.00;99.90
1626;DHT22;806;48.770;9.156;2023-04-03T02:11:10;5.90;99.90
1626;DHT22;806;48.770;9.156;2023-04-03T02:13:37;5.70;99.90
1626;DHT22;806;48.770;9.156;2023-04-03T02:16:09;5.70;99.90
1626;DHT22;806;48.770;9.156;2023-04-03T02:18:37;5.70;99.90
1626;DHT22;806;48.770;9.156;2023-04-03T02:21:04;5.80;99.90
1626;DHT22;806;48.770;9.156;2023-04-03T02:23:33;5.90;99.90
1626;DHT22;806;48.770;9.156;2023-04-03T02:26:06;5.90;99.90
1626;DHT22;806;48.770;9.156;2023-04-03T02:28:34;5.90;99.90
1626;DHT22;806;48.770;9.156;2023-04-03T02:31:01;6.00;99.90
1626;DHT22;806;48.770;9.156;2023-04-03T02:33:28;6.10;99.90
1626;DHT22;806;48.770;9.156;2023-04-03T02:35:55;6.30;99.90
1626;DHT22;806;48.770;9.156;2023-04-03T02:38:23;6.40;99.90
1626;DHT22;806;48.770;9.156;2023-04-03T02:40:52;6.30;99.90
1626;DHT22;806;48.770;9.156;2023-04-03T02:43:19;6.10;99.90
1626;DHT22;806;48.770;9.156;2023-04-03T02:45:46;6.00;99.90
1626;DHT22;806;48.770;9.156;2023-04-03T02:48:13;5.90;99.90
1626;DHT22;806;48.770;9.156;2023-04-03T02:50:42;5.80;99.90
1626;DHT22;806;48.770;9.156;2023-04-03T02:53:09;5.80;99.90
1626;DHT22;806;48.770;9.156;2023-04-03T02:55:36;5.90;99.90
1626;DHT22;806;48.770;9.156;2023-04-03T02:58:05;5.90;99.90
1626;DHT22;806;48.770;9.156;2023-04-03T03:00:32;5.80;99.90
1626;DHT22;806;48.770;9.156;2023-04-03T03:02:59;5.70;99.90
1626;DHT22;806;48.770;9.156;2023-04-03T03:05:27;5.70;99.90
1626;DHT22;806;48.770;9.156;2023-04-03T03:07:54;5.70;99.90
1626;DHT22;806;48.770;9.156;2023-04-03T03:10:21;5.70;99.90
1626;DHT22;806;48.770;9.156;2023-04-03T03:12:48;5.50;99.90
1626;DHT22;806;48.770;9.156;2023-04-03T03:15:17;5.40;99.90
1626;DHT22;806;48.770;9.156;2023-04-03T03:17:45;5.30;99.90
1626;DHT22;806;48.770;9.156;2023-04-03T03:20:12;5.30;99.90
1626;DHT22;806;48.770;9.156;2023-04-03T03:22:41;5.30;99.90
1626;DHT22;806;48.770;9.156;2023-04-03T03:25:08;5.20;99.90
1626;DHT22;806;48.770;9.156;2023-04-03T03:27:36;5.40;99.90
1626;DHT22;806;48.770;9.156;2023-04-03T03:30:04;5.40;99.90
1626;DHT22;806;48.770;9.156;2023-04-03T03:32:33;5.20;99.90
1626;DHT22;806;48.770;9.156;2023-04-03T03:35:00;5.20;99.90
1626;DHT22;806;48.770;9.156;2023-04-03T03:37:27;5.20;99.90
1626;DHT22;806;48.770;9.156;2023-04-03T03:39:54;5.10;99.90
1626;DHT22;806;48.770;9.156;2023-04-03T03:42:21;5.10;99.90
1626;DHT22;806;48.770;9.156;2023-04-03T03:44:48;5.00;99.90
1626;DHT22;806;48.770;9.156;2023-04-03T03:47:17;5.10;99.90
1626;DHT22;806;48.770;9.156;2023-04-03T03:49:45;5.10;99.90
1626;DHT22;806;48.770;9.156;2023-04-03T03:52:12;5.20;99.90
1626;DHT22;806;48.770;9.156;2023-04-03T03:54:40;5.30;99.90
1626;DHT22;806;48.770;9.156;2023-04-03T03:57:07;5.30;99.90
1626;DHT22;806;48.770;9.156;2023-04-03T03:59:34;5.20;99.90
1626;DHT22;806;48.770;9.156;2023-04-03T04:02:01;5.20;99.90
1626;DHT22;806;48.770;9.156;2023-04-03T04:04:28;5.30;99.90
1626;DHT22;806;48.770;9.156;2023-04-03T04:06:56;5.30;99.90
1626;DHT22;806;48.770;9.156;2023-04-03T04:09:25;5.30;99.90
1626;DHT22;806;48.770;9.156;2023-04-03T04:11:52;5.60;99.90
1626;DHT22;806;48.770;9.156;2023-04-03T04:14:20;5.80;99.90
1626;DHT22;806;48.770;9.156;2023-04-03T04:16:47;6.00;99.90
1626;DHT22;806;48.770;9.156;2023-04-03T04:19:14;6.10;99.90
1626;DHT22;806;48.770;9.156;2023-04-03T04:21:41;5.80;99.90
1626;DHT22;806;48.770;9.156;2023-04-03T04:24:10;5.50;99.90
1626;DHT22;806;48.770;9.156;2023-04-03T04:26:37;5.40;99.90
1626;DHT22;806;48.770;9.156;2023-04-03T04:29:04;5.30;99.90
1626;DHT22;806;48.770;9.156;2023-04-03T04:31:31;5.40;99.90
1626;DHT22;806;48.770;9.156;2023-04-03T04:33:58;5.30;99.90
1626;DHT22;806;48.770;9.156;2023-04-03T04:36:25;5.40;99.90
1626;DHT22;806;48.770;9.156;2023-04-03T04:38:52;5.40;99.90
1626;DHT22;806;48.770;9.156;2023-04-03T04:41:22;5.30;99.90
1626;DHT22;806;48.770;9.156;2023-04-03T04:43:49;5.30;99.90
1626;DHT22;806;48.770;9.156;2023-04-03T04:46:16;5.30;99.90
1626;DHT22;806;48.770;9.156;2023-04-03T04:48:44;5.40;99.90
1626;DHT22;806;48.770;9.156;2023-04-03T04:51:11;5.60;99.90
1626;DHT22;806;48.770;9.156;2023-04-03T04:53:38;5.50;99.90
1626;DHT22;806;48.770;9.156;2023-04-03T04:56:07;5.40;99.90
1626;DHT22;806;48.770;9.156;2023-04-03T04:58:35;5.30;99.90
1626;DHT22;806;48.770;9.156;2023-04-03T05:01:04;5.20;99.90
1626;DHT22;806;48.770;9.156;2023-04-03T05:03:32;5.20;99.90
1626;DHT22;806;48.770;9.156;2023-04-03T05:05:59;5.20;99.90
1626;DHT22;806;48.770;9.156;2023-04-03T05:08:27;5.30;99.90
1626;DHT22;806;48.770;9.156;2023-04-03T05:10:54;5.50;99.90
1626;DHT22;806;48.770;9.156;2023-04-03T05:13:21;5.50;99.90
1626;DHT22;806;48.770;9.156;2023-04-03T05:15:49;5.60;99.90
1626;DHT22;806;48.770;9.156;2023-04-03T05:18:17;5.70;99.90
1626;DHT22;806;48.770;9.156;2023-04-03T05:20:44;5.80;99.90
1626;DHT22;806;48.770;9.156;2023-04-03T05:23:11;5.70;99.90
1626;DHT22;806;48.770;9.156;2023-04-03T05:25:38;5.70;99.90
1626;DHT22;806;48.770;9.156;2023-04-03T05:28:06;5.90;99.90
1626;DHT22;806;48.770;9.156;2023-04-03T05:30:33;6.00;99.90
1626;DHT22;806;48.770;9.156;2023-04-03T05:33:02;5.90;99.90
1626;DHT22;806;48.770;9.156;2023-04-03T05:35:29;5.90;99.90
1626;DHT22;806;48.770;9.156;2023-04-03T05:37:56;5.90;99.90
1626;DHT22;806;48.770;9.156;2023-04-03T05:40:23;6.00;99.90
1626;DHT22;806;48.770;9.156;2023-04-03T05:42:51;6.00;99.90
1626;DHT22;806;48.770;9.156;2023-04-03T05:45:19;6.00;99.90
1626;DHT22;806;48.770;9.156;2023-04-03T05:47:46;6.00;99.90
1626;DHT22;806;48.770;9.156;2023-04-03T05:50:15;6.00;99.90
1626;DHT22;806;48.770;9.156;2023-04-03T05:52:45;5.90;99.90
1626;DHT22;806;48.770;9.156;2023-04-03T05:55:13;5.90;99.90
1626;DHT22;806;48.770;9.156;2023-04-03T05:57:40;5.80;99.90
1626;DHT22;806;48.770;9.156;2023-04-03T06:00:10;5.60;99.90
1626;DHT22;806;48.770;9.156;2023-04-03T06:02:38;5.70;99.90
1626;DHT22;806;48.770;9.156;2023-04-03T06:05:06;5.60;99.90
1626;DHT22;806;48.770;9.156;2023-04-03T06:07:35;5.70;99.90
1626;DHT22;806;48.770;9.156;2023-04-03T06:10:03;5.80;99.90
1626;DHT22;806;48.770;9.156;2023-04-03T06:12:30;5.70;99.90
1626;DHT22;806;48.770;9.156;2023-04-03T06:14:58;5.80;99.90
1626;DHT22;806;48.770;9.156;2023-04-03T06:17:25;5.70;99.90
1626;DHT22;806;48.770;9.156;2023-04-03T06:19:52;5.70;99.90
1626;DHT22;806;48.770;9.156;2023-04-03T06:22:19;5.70;99.90
1626;DHT22;806;48.770;9.156;2023-04-03T06:24:50;5.80;99.90
1626;DHT22;806;48.770;9.156;2023-04-03T06:27:17;5.70;99.90
1626;DHT22;806;48.770;9.156;2023-04-03T06:29:44;5.70;99.90
1626;DHT22;806;48.770;9.156;2023-04-03T06:32:11;5.70;99.90
1626;DHT22;806;48.770;9.156;2023-04-03T06:34:38;5.80;99.90
1626;DHT22;806;48.770;9.156;2023-04-03T06:37:05;5.70;99.90
1626;DHT22;806;48.770;9.156;2023-04-03T06:39:33;5.50;99.90
1626;DHT22;806;48.770;9.156;2023-04-03T06:42:02;5.60;99.90
1626;DHT22;806;48.770;9.156;2023-04-03T06:44:29;5.80;99.90
1626;DHT22;806;48.770;9.156;2023-04-03T06:46:59;5.70;99.90
1626;DHT22;806;48.770;9.156;2023-04-03T06:49:27;5.80;99.90
1626;DHT22;806;48.770;9.156;2023-04-03T06:51:54;5.70;99.90
1626;DHT22;806;48.770;9.156;2023-04-03T06:54:22;5.90;99.90
1626;DHT22;806;48.770;9.156;2023-04-03T06:56:49;5.90;99.90
1626;DHT22;806;48.770;9.156;2023-04-03T06:59:18;5.90;99.90
1626;DHT22;806;48.770;9.156;2023-04-03T07:01:45;6.00;99.90
1626;DHT22;806;48.770;9.156;2023-04-03T07:04:12;6.20;99.90
1626;DHT22;806;48.770;9.156;2023-04-03T07:06:40;6.50;99.90
1626;DHT22;806;48.770;9.156;2023-04-03T07:09:07;6.50;99.90
1626;DHT22;806;48.770;9.156;2023-04-03T07:11:34;6.40;99.90
1626;DHT22;806;48.770;9.156;2023-04-03T07:14:02;6.60;99.90
1626;DHT22;806;48.770;9.156;2023-04-03T07:16:30;6.40;99.90
1626;DHT22;806;48.770;9.156;2023-04-03T07:18:57;6.60;99.90
1626;DHT22;806;48.770;9.156;2023-04-03T07:21:25;6.50;99.90
1626;DHT22;806;48.770;9.156;2023-04-03T07:23:52;6.60;99.90
1626;DHT22;806;48.770;9.156;2023-04-03T07:26:19;6.80;99.90
1626;DHT22;806;48.770;9.156;2023-04-03T07:28:48;6.90;99.90
1626;DHT22;806;48.770;9.156;2023-04-03T07:31:16;7.10;99.90
1626;DHT22;806;48.770;9.156;2023-04-03T07:33:45;7.10;99.90
1626;DHT22;806;48.770;9.156;2023-04-03T07:36:16;7.20;99.90
1626;DHT22;806;48.770;9.156;2023-04-03T07:38:43;7.30;99.90
1626;DHT22;806;48.770;9.156;2023-04-03T07:41:13;7.50;99.90
1626;DHT22;806;48.770;9.156;2023-04-03T07:43:40;7.60;99.90
1626;DHT22;806;48.770;9.156;2023-04-03T07:46:08;7.50;99.90
1626;DHT22;806;48.770;9.156;2023-04-03T07:48:36;7.60;99.90
1626;DHT22;806;48.770;9.156;2023-04-03T07:51:05;7.40;99.90
1626;DHT22;806;48.770;9.156;2023-04-03T07:53:33;7.30;99.90
1626;DHT22;806;48.770;9.156;2023-04-03T07:56:00;7.30;99.90
1626;DHT22;806;48.770;9.156;2023-04-03T07:58:29;7.40;99.90
1626;DHT22;806;48.770;9.156;2023-04-03T08:00:56;7.50;99.90
1626;DHT22;806;48.770;9.156;2023-04-03T08:03:24;7.60;99.90
1626;DHT22;806;48.770;9.156;2023-04-03T08:05:51;7.40;99.90
1626;DHT22;806;48.770;9.156;2023-04-03T08:08:22;7.40;99.90
1626;DHT22;806;48.770;9.156;2023-04-03T08:10:50;7.40;99.90
1626;DHT22;806;48.770;9.156;2023-04-03T08:13:18;7.40;99.90
1626;DHT22;806;48.770;9.156;2023-04-03T08:15:46;7.40;99.90
1626;DHT22;806;48.770;9.156;2023-04-03T08:18:13;7.20;99.90
1626;DHT22;806;48.770;9.156;2023-04-03T08:20:40;7.10;99.90
1626;DHT22;806;48.770;9.156;2023-04-03T08:23:08;7.10;99.90
1626;DHT22;806;48.770;9.156;2023-04-03T08:25:39;7.20;99.90
1626;DHT22;806;48.770;9.156;2023-04-03T08:28:06;7.10;99.90
1626;DHT22;806;48.770;9.156;2023-04-03T08:30:35;7.00;99.90
1626;DHT22;806;48.770;9.156;2023-04-03T08:33:03;7.00;99.90
1626;DHT22;806;48.770;9.156;2023-04-03T08:35:30;7.10;99.90
1626;DHT22;806;48.770;9.156;2023-04-03T08:37:57;6.90;99.90
1626;DHT22;806;48.770;9.156;2023-04-03T08:40:25;7.00;99.90
1626;DHT22;806;48.770;9.156;2023-04-03T08:43:04;7.20;99.90
1626;DHT22;806;48.770;9.156;2023-04-03T08:45:43;7.30;99.90
1626;DHT22;806;48.770;9.156;2023-04-03T08:48:15;7.20;99.90
1626;DHT22;806;48.770;9.156;2023-04-03T08:50:46;7.30;99.90
1626;DHT22;806;48.770;9.156;2023-04-03T08:53:18;7.10;99.90
1626;DHT22;806;48.770;9.156;2023-04-03T08:55:48;7.30;99.90
1626;DHT22;806;48.770;9.156;2023-04-03T08:58:20;7.50;99.90
1626;DHT22;806;48.770;9.156;2023-04-03T09:00:52;7.40;99.90
1626;DHT22;806;48.770;9.156;2023-04-03T09:03:22;7.40;99.90
1626;DHT22;806;48.770;9.156;2023-04-03T09:05:55;7.50;99.90
1626;DHT22;806;48.770;9.156;2023-04-03T09:08:27;7.70;99.90
1626;DHT22;806;48.770;9.156;2023-04-03T09:11:08;7.50;99.90
1626;DHT22;806;48.770;9.156;2023-04-03T09:13:46;7.50;99.90
1626;DHT22;806;48.770;9.156;2023-04-03T09:16:25;7.70;99.90
1626;DHT22;806;48.770;9.156;2023-04-03T09:19:02;7.80;99.90
1626;DHT22;806;48.770;9.156;2023-04-03T09:21:37;7.90;99.90
1626;DHT22;806;48.770;9.156;2023-04-03T09:24:10;8.20;99.90
1626;DHT22;806;48.770;9.156;2023-04-03T09:26:44;8.00;99.90
1626;DHT22;806;48.770;9.156;2023-04-03T09:29:18;8.10;99.90
1626;DHT22;806;48.770;9.156;2023-04-03T09:31:48;8.30;99.90
1626;DHT22;806;48.770;9.156;2023-04-03T09:34:21;8.30;99.90
1626;DHT22;806;48.770;9.156;2023-04-03T09:36:52;8.20;99.90
1626;DHT22;806;48.770;9.156;2023-04-03T09:39:23;8.10;99.90
1626;DHT22;806;48.770;9.156;2023-04-03T09:42:03;8.00;99.90
1626;DHT22;806;48.770;9.156;2023-04-03T09:44:35;8.10;99.90
1626;DHT22;806;48.770;9.156;2023-04-03T09:47:19;8.10;99.90
1626;DHT22;806;48.770;9.156;2023-04-03T09:49:48;8.00;99.90
1626;DHT22;806;48.770;9.156;2023-04-03T09:52:22;7.90;99.90
1626;DHT22;806;48.770;9.156;2023-04-03T09:54:50;8.00;99.90
1626;DHT22;806;48.770;9.156;2023-04-03T09:57:19;8.00;99.90
1626;DHT22;806;48.770;9.156;2023-04-03T09:59:57;7.90;99.90
1626;DHT22;806;48.770;9.156;2023-04-03T10:02:36;7.80;99.90
1626;DHT22;806;48.770;9.156;2023-04-03T10:05:30;7.80;99.90
1626;DHT22;806;48.770;9.156;2023-04-03T10:08:20;7.70;99.90
1626;DHT22;806;48.770;9.156;2023-04-03T10:11:06;7.70;99.90
1626;DHT22;806;48.770;9.156;2023-04-03T10:13:36;7.80;99.90
1626;DHT22;806;48.770;9.156;2023-04-03T10:16:21;7.90;99.90
1626;DHT22;806;48.770;9.156;2023-04-03T10:19:00;8.00;99.90
1626;DHT22;806;48.770;9.156;2023-04-03T10:21:38;8.10;99.90
1626;DHT22;806;48.770;9.156;2023-04-03T10:24:13;8.20;99.90
1626;DHT22;806;48.770;9.156;2023-04-03T10:26:48;8.10;99.90
1626;DHT22;806;48.770;9.156;2023-04-03T10:29:34;8.10;99.90
1626;DHT22;806;48.770;9.156;2023-04-03T10:32:17;8.30;99.90
1626;DHT22;806;48.770;9.156;2023-04-03T10:34:54;8.30;99.90
1626;DHT22;806;48.770;9.156;2023-04-03T10:37:29;8.40;99.90
1626;DHT22;806;48.770;9.156;2023-04-03T10:40:05;8.40;99.90
1626;DHT22;806;48.770;9.156;2023-04-03T10:42:42;8.30;99.90
1626;DHT22;806;48.770;9.156;2023-04-03T10:45:21;8.10;99.90
1626;DHT22;806;48.770;9.156;2023-04-03T10:48:00;8.20;99.90
1626;DHT22;806;48.770;9.156;2023-04-03T10:50:38;8.10;99.90
1626;DHT22;806;48.770;9.156;2023-04-03T10:53:13;8.10;99.90
1626;DHT22;806;48.770;9.156;2023-04-03T10:55:50;7.80;99.90
1626;DHT22;806;48.770;9.156;2023-04-03T10:58:21;8.00;99.90
1626;DHT22;806;48.770;9.156;2023-04-03T11:00:52;8.00;99.90
1626;DHT22;806;48.770;9.156;2023-04-03T11:03:29;8.00;99.90
1626;DHT22;806;48.770;9.156;2023-04-03T11:05:59;8.20;99.90
1626;DHT22;806;48.770;9.156;2023-04-03T11:08:33;8.30;99.90
1626;DHT22;806;48.770;9.156;2023-04-03T11:11:06;8.10;99.90
1626;DHT22;806;48.770;9.156;2023-04-03T11:13:40;8.20;99.90
1626;DHT22;806;48.770;9.156;2023-04-03T11:16:08;8.20;99.90
1626;DHT22;806;48.770;9.156;2023-04-03T11:18:40;8.20;99.90
1626;DHT22;806;48.770;9.156;2023-04-03T11:21:15;8.20;99.90
1626;DHT22;806;48.770;9.156;2023-04-03T11:23:46;8.40;99.90
1626;DHT22;806;48.770;9.156;2023-04-03T11:26:15;8.40;99.90
1626;DHT22;806;48.770;9.156;2023-04-03T11:28:43;8.30;99.90
1626;DHT22;806;48.770;9.156;2023-04-03T11:31:22;8.20;99.90
1626;DHT22;806;48.770;9.156;2023-04-03T11:34:02;8.20;99.90
1626;DHT22;806;48.770;9.156;2023-04-03T11:36:39;8.20;99.90
1626;DHT22;806;48.770;9.156;2023-04-03T11:39:15;8.20;99.90
1626;DHT22;806;48.770;9.156;2023-04-03T11:41:44;8.10;99.90
1626;DHT22;806;48.770;9.156;2023-04-03T11:44:30;8.20;99.90
1626;DHT22;806;48.770;9.156;2023-04-03T11:47:00;8.30;99.90
1626;DHT22;806;48.770;9.156;2023-04-03T11:49:56;8.40;99.90
1626;DHT22;806;48.770;9.156;2023-04-03T11:52:59;8.40;99.90
1626;DHT22;806;48.770;9.156;2023-04-03T11:55:53;8.40;99.90
1626;DHT22;806;48.770;9.156;2023-04-03T11:58:22;8.50;99.90
1626;DHT22;806;48.770;9.156;2023-04-03T12:04:03;8.40;99.90
1626;DHT22;806;48.770;9.156;2023-04-03T12:07:01;8.40;99.90
1626;DHT22;806;48.770;9.156;2023-04-03T12:12:34;8.20;99.90
1626;DHT22;806;48.770;9.156;2023-04-03T12:15:43;8.40;99.90
1626;DHT22;806;48.770;9.156;2023-04-03T12:21:19;8.40;99.90
1626;DHT22;806;48.770;9.156;2023-04-03T12:24:02;8.50;99.90
1626;DHT22;806;48.770;9.156;2023-04-03T12:26:36;8.40;99.90
1626;DHT22;806;48.770;9.156;2023-04-03T12:29:15;8.30;99.90
1626;DHT22;806;48.770;9.156;2023-04-03T12:31:54;8.20;99.90
1626;DHT22;806;48.770;9.156;2023-04-03T12:34:41;8.30;99.90
1626;DHT22;806;48.770;9.156;2023-04-03T12:37:23;8.30;99.90
1626;DHT22;806;48.770;9.156;2023-04-03T12:40:04;8.30;99.90
1626;DHT22;806;48.770;9.156;2023-04-03T12:45:56;8.30;99.90
1626;DHT22;806;48.770;9.156;2023-04-03T12:48:28;8.30;99.90
1626;DHT22;806;48.770;9.156;2023-04-03T12:50:59;8.20;99.90
1626;DHT22;806;48.770;9.156;2023-04-03T12:53:29;8.10;99.90
1626;DHT22;806;48.770;9.156;2023-04-03T12:56:23;8.20;99.90
1626;DHT22;806;48.770;9.156;2023-04-03T12:58:53;8.00;99.90
1626;DHT22;806;48.770;9.156;2023-04-03T13:01:24;8.10;99.90
1626;DHT22;806;48.770;9.156;2023-04-03T13:03:55;8.40;99.90
1626;DHT22;806;48.770;9.156;2023-04-03T13:06:26;8.40;99.90
1626;DHT22;806;48.770;9.156;2023-04-03T13:08:57;8.60;99.90
1626;DHT22;806;48.770;9.156;2023-04-03T13:11:33;8.80;99.90
1626;DHT22;806;48.770;9.156;2023-04-03T13:14:04;8.90;99.90
1626;DHT22;806;48.770;9.156;2023-04-03T13:16:34;8.90;99.90
1626;DHT22;806;48.770;9.156;2023-04-03T13:19:04;9.10;99.90
1626;DHT22;806;48.770;9.156;2023-04-03T13:21:34;9.20;99.90
1626;DHT22;806;48.770;9.156;2023-04-03T13:24:04;9.40;99.90
1626;DHT22;806;48.770;9.156;2023-04-03T13:26:33;9.20;99.90
1626;DHT22;806;48.770;9.156;2023-04-03T13:29:17;9.30;99.90
1626;DHT22;806;48.770;9.156;2023-04-03T13:31:47;9.40;99.90
1626;DHT22;806;48.770;9.156;2023-04-03T13:34:20;9.30;99.90
1626;DHT22;806;48.770;9.156;2023-04-03T13:36:57;9.30;99.90
1626;DHT22;806;48.770;9.156;2023-04-03T13:39:27;9.20;99.90
1626;DHT22;806;48.770;9.156;2023-04-03T13:41:59;9.20;99.90
1626;DHT22;806;48.770;9.156;2023-04-03T13:44:34;9.00;99.90
1626;DHT22;806;48.770;9.156;2023-04-03T13:47:17;9.10;99.90
1626;DHT22;806;48.770;9.156;2023-04-03T13:49:46;9.10;99.90
1626;DHT22;806;48.770;9.156;2023-04-03T13:52:29;9.20;99.90
1626;DHT22;806;48.770;9.156;2023-04-03T13:54:58;9.30;99.80
1626;DHT22;806;48.770;9.156;2023-04-03T13:57:27;9.30;99.40
1626;DHT22;806;48.770;9.156;2023-04-03T13:59:54;9.30;99.90
1626;DHT22;806;48.770;9.156;2023-04-03T14:02:28;9.30;98.40
1626;DHT22;806;48.770;9.156;2023-04-03T14:04:58;9.20;99.20
1626;DHT22;806;48.770;9.156;2023-04-03T14:07:27;9.10;98.00
1626;DHT22;806;48.770;9.156;2023-04-03T14:09:55;8.90;98.40
1626;DHT22;806;48.770;9.156;2023-04-03T14:12:27;8.90;98.20
1626;DHT22;806;48.770;9.156;2023-04-03T14:14:56;9.00;99.90
1626;DHT22;806;48.770;9.156;2023-04-03T14:17:24;9.20;99.90
1626;DHT22;806;48.770;9.156;2023-04-03T14:19:54;9.30;99.00
1626;DHT22;806;48.770;9.156;2023-04-03T14:22:24;9.30;99.30
1626;DHT22;806;48.770;9.156;2023-04-03T14:24:52;9.30;99.50
1626;DHT22;806;48.770;9.156;2023-04-03T14:27:21;9.30;99.30
1626;DHT22;806;48.770;9.156;2023-04-03T14:29:52;9.30;99.80
1626;DHT22;806;48.770;9.156;2023-04-03T14:32:21;9.20;97.50
1626;DHT22;806;48.770;9.156;2023-04-03T14:34:50;8.80;97.30
1626;DHT22;806;48.770;9.156;2023-04-03T14:37:19;8.80;97.80
1626;DHT22;806;48.770;9.156;2023-04-03T14:39:48;8.80;98.70
1626;DHT22;806;48.770;9.156;2023-04-03T14:42:18;8.80;99.90
1626;DHT22;806;48.770;9.156;2023-04-03T14:44:46;9.00;98.70
1626;DHT22;806;48.770;9.156;2023-04-03T14:47:17;9.20;98.40
1626;DHT22;806;48.770;9.156;2023-04-03T14:49:46;9.30;97.50
1626;DHT22;806;48.770;9.156;2023-04-03T14:52:18;9.60;96.60
1626;DHT22;806;48.770;9.156;2023-04-03T14:54:46;9.60;95.20
1626;DHT22;806;48.770;9.156;2023-04-03T14:57:14;9.30;95.60
1626;DHT22;806;48.770;9.156;2023-04-03T14:59:42;9.30;96.20
1626;DHT22;806;48.770;9.156;2023-04-03T15:02:26;9.30;96.40
1626;DHT22;806;48.770;9.156;2023-04-03T15:04:53;9.20;94.40
1626;DHT22;806;48.770;9.156;2023-04-03T15:07:21;9.20;94.50
1626;DHT22;806;48.770;9.156;2023-04-03T15:09:49;9.10;94.90
1626;DHT22;806;48.770;9.156;2023-04-03T15:12:16;9.10;95.40
1626;DHT22;806;48.770;9.156;2023-04-03T15:14:44;9.20;94.30
1626;DHT22;806;48.770;9.156;2023-04-03T15:17:14;9.20;93.60
1626;DHT22;806;48.770;9.156;2023-04-03T15:19:44;9.10;94.30
1626;DHT22;806;48.770;9.156;2023-04-03T15:22:13;9.10;95.00
1626;DHT22;806;48.770;9.156;2023-04-03T15:24:41;8.90;94.20
1626;DHT22;806;48.770;9.156;2023-04-03T15:27:09;8.90;94.10
1626;DHT22;806;48.770;9.156;2023-04-03T15:29:37;8.90;93.50
1626;DHT22;806;48.770;9.156;2023-04-03T15:32:05;8.80;92.70
1626;DHT22;806;48.770;9.156;2023-04-03T15:34:32;9.00;92.60
1626;DHT22;806;48.770;9.156;2023-04-03T15:37:01;9.10;91.70
1626;DHT22;806;48.770;9.156;2023-04-03T15:39:28;9.10;91.40
1626;DHT22;806;48.770;9.156;2023-04-03T15:41:56;9.10;91.50
1626;DHT22;806;48.770;9.156;2023-04-03T15:44:25;9.00;91.90
1626;DHT22;806;48.770;9.156;2023-04-03T15:46:52;9.00;92.50
1626;DHT22;806;48.770;9.156;2023-04-03T15:49:21;8.90;91.10
1626;DHT22;806;48.770;9.156;2023-04-03T15:51:48;8.70;92.40
1626;DHT22;806;48.770;9.156;2023-04-03T15:54:17;8.60;92.20
1626;DHT22;806;48.770;9.156;2023-04-03T15:56:44;8.50;92.20
1626;DHT22;806;48.770;9.156;2023-04-03T15:59:13;8.40;92.80
1626;DHT22;806;48.770;9.156;2023-04-03T16:01:40;8.50;92.40
1626;DHT22;806;48.770;9.156;2023-04-03T16:04:08;8.50;93.00
1626;DHT22;806;48.770;9.156;2023-04-03T16:06:36;8.60;92.20
1626;DHT22;806;48.770;9.156;2023-04-03T16:09:03;8.40;91.50
1626;DHT22;806;48.770;9.156;2023-04-03T16:11:32;8.50;91.40
1626;DHT22;806;48.770;9.156;2023-04-03T16:14:01;8.50;93.00
1626;DHT22;806;48.770;9.156;2023-04-03T16:16:28;8.60;91.60
1626;DHT22;806;48.770;9.156;2023-04-03T16:18:56;8.60;91.60
1626;DHT22;806;48.770;9.156;2023-04-03T16:21:24;8.80;91.90
1626;DHT22;806;48.770;9.156;2023-04-03T16:23:51;8.70;91.10
1626;DHT22;806;48.770;9.156;2023-04-03T16:26:18;8.60;91.20
1626;DHT22;806;48.770;9.156;2023-04-03T16:28:47;8.40;90.00
1626;DHT22;806;48.770;9.156;2023-04-03T16:31:14;8.40;90.70
1626;DHT22;806;48.770;9.156;2023-04-03T16:33:41;8.30;89.00
1626;DHT22;806;48.770;9.156;2023-04-03T16:36:08;8.30;90.60
1626;DHT22;806;48.770;9.156;2023-04-03T16:38:38;8.10;90.00
1626;DHT22;806;48.770;9.156;2023-04-03T16:41:05;8.00;89.70
1626;DHT22;806;48.770;9.156;2023-04-03T16:43:33;7.90;90.40
1626;DHT22;806;48.770;9.156;2023-04-03T16:46:03;7.80;89.50
1626;DHT22;806;48.770;9.156;2023-04-03T16:48:33;7.80;90.10
1626;DHT22;806;48.770;9.156;2023-04-03T16:51:00;7.90;91.30
1626;DHT22;806;48.770;9.156;2023-04-03T16:53:28;8.00;91.20
1626;DHT22;806;48.770;9.156;2023-04-03T16:55:57;8.00;90.50
1626;DHT22;806;48.770;9.156;2023-04-03T16:58:24;8.00;91.10
1626;DHT22;806;48.770;9.156;2023-04-03T17:00:52;8.00;90.70
1626;DHT22;806;48.770;9.156;2023-04-03T17:03:20;7.90;91.20
1626;DHT22;806;48.770;9.156;2023-04-03T17:05:50;7.90;92.00
1626;DHT22;806;48.770;9.156;2023-04-03T17:08:17;7.90;92.30